Time;durP1;ratioP1;P1;durP2;ratioP2;P2;SDS_P1;SDS_P2;PMS_P1;PMS_P2;Temp;Humidity;BMP_temperature;BMP_pressure;BME280_temperature;BME280_humidity;BME280_pressure;Samples;Min_cycle;Max_cycle;Signal;HPM_P1;HPM_P2
2021/01/31 00:00:31;;;;;;;369.35;243.95;;;282.20;1484.80;;;;;;4976548;28;20058;-71
2021/01/31 00:02:59;;;;;;;278.23;178.05;;;282.00;1510.40;;;;;;4976833;28;20057;-71
2021/01/31 00:05:25;;;;;;;256.65;156.20;;;282.10;1484.80;;;;;;4976575;28;20114;-75
2021/01/31 00:07:51;;;;;;;214.38;133.18;;;282.30;1484.80;;;;;;4976718;28;20038;-76
2021/01/31 00:10:22;;;;;;;225.20;134.15;;;282.30;1459.20;;;;;;4976743;28;20030;-76
2021/01/31 00:12:47;;;;;;;228.57;136.38;;;282.40;1459.20;;;;;;4976648;28;20049;-76
2021/01/31 00:15:18;;;;;;;240.57;147.73;;;282.40;1459.20;;;;;;4976781;28;20466;-77
2021/01/31 00:17:44;;;;;;;247.98;153.27;;;282.50;1459.20;;;;;;4976711;28;20073;-76
2021/01/31 00:20:11;;;;;;;262.95;159.25;;;282.40;1459.20;;;;;;4976651;28;20540;-70
2021/01/31 00:22:37;;;;;;;222.35;142.25;;;282.20;1484.80;;;;;;4976109;28;20015;-76
2021/01/31 00:25:04;;;;;;;221.60;137.70;;;282.30;1484.80;;;;;;4976229;28;20401;-74
2021/01/31 00:27:30;;;;;;;201.70;123.25;;;282.20;1484.80;;;;;;4974998;28;20035;-72
2021/01/31 00:29:56;;;;;;;167.70;107.32;;;282.10;1484.80;;;;;;4976325;28;20030;-72
2021/01/31 00:32:26;;;;;;;185.57;121.95;;;282.10;1484.80;;;;;;4976068;28;20094;-73
2021/01/31 00:34:53;;;;;;;179.75;113.15;;;281.70;1484.80;;;;;;4958490;28;20455;-73
2021/01/31 00:37:20;;;;;;;173.27;108.53;;;281.90;1484.80;;;;;;4975666;28;20412;-75
2021/01/31 00:39:53;;;;;;;158.02;98.50;;;281.90;1510.40;;;;;;4976217;28;20022;-71
2021/01/31 00:42:20;;;;;;;171.00;105.18;;;281.90;1817.60;;;;;;4976150;28;20038;-67
2021/01/31 00:44:51;;;;;;;192.88;116.35;;;281.90;1510.40;;;;;;4975944;28;20065;-68
2021/01/31 00:47:18;;;;;;;201.87;123.30;;;282.00;1510.40;;;;;;4976050;28;20089;-67
2021/01/31 00:49:45;;;;;;;205.43;120.07;;;281.90;1510.40;;;;;;4976029;28;20265;-67
2021/01/31 00:52:11;;;;;;;192.18;116.32;;;281.90;1510.40;;;;;;4976063;28;20027;-67
2021/01/31 00:54:37;;;;;;;210.23;128.75;;;281.80;1510.40;;;;;;4975827;28;20027;-68
2021/01/31 00:57:04;;;;;;;192.52;116.78;;;282.00;1510.40;;;;;;4975554;28;20054;-67
2021/01/31 00:59:29;;;;;;;192.73;121.55;;;282.00;1484.80;;;;;;4975651;28;20552;-68
2021/01/31 01:01:55;;;;;;;191.05;120.03;;;282.00;1510.40;;;;;;4975765;28;20030;-67
2021/01/31 01:04:21;;;;;;;225.18;138.73;;;282.20;1484.80;;;;;;4975573;28;20022;-71
2021/01/31 01:06:46;;;;;;;268.63;163.20;;;282.20;1459.20;;;;;;4975694;28;20038;-70
2021/01/31 01:09:13;;;;;;;273.27;171.35;;;282.30;1459.20;;;;;;4975655;28;20085;-70
2021/01/31 01:11:39;;;;;;;286.05;182.38;;;282.20;1510.40;;;;;;4975612;28;20034;-71
2021/01/31 01:14:05;;;;;;;295.30;186.23;;;282.00;1536.00;;;;;;4975333;28;20027;-71
2021/01/31 01:16:31;;;;;;;284.05;177.93;;;282.10;1510.40;;;;;;4975565;28;20019;-70
2021/01/31 01:18:56;;;;;;;283.55;170.77;;;282.10;1510.40;;;;;;4975401;28;20098;-70
2021/01/31 01:21:22;;;;;;;292.35;184.00;;;282.20;1510.40;;;;;;4975502;28;20019;-71
2021/01/31 01:23:48;;;;;;;298.20;183.20;;;282.30;1536.00;;;;;;4975296;28;20102;-71
2021/01/31 01:26:14;;;;;;;274.83;176.35;;;282.20;1536.00;;;;;;4975505;28;20130;-71
2021/01/31 01:28:39;;;;;;;286.85;177.00;;;282.30;1536.00;;;;;;4975170;28;20029;-70
2021/01/31 01:31:05;;;;;;;280.33;176.23;;;282.30;1561.60;;;;;;4975128;28;20027;-72
2021/01/31 01:33:30;;;;;;;308.00;190.93;;;282.30;1510.40;;;;;;4975002;28;20026;-71
2021/01/31 01:35:56;;;;;;;285.17;173.40;;;282.20;1536.00;;;;;;4974948;28;20093;-72
2021/01/31 01:38:22;;;;;;;270.00;166.85;;;282.20;1536.00;;;;;;4974806;28;20027;-71
2021/01/31 01:40:47;;;;;;;226.32;142.98;;;282.20;1536.00;;;;;;4975318;28;20089;-71
2021/01/31 01:43:16;;;;;;;213.18;135.70;;;282.30;1510.40;;;;;;4974935;28;20027;-71
2021/01/31 01:45:42;;;;;;;194.25;122.53;;;282.20;1510.40;;;;;;4973378;28;20027;-71
2021/01/31 01:48:14;;;;;;;293.48;167.13;;;282.30;1484.80;;;;;;4955591;29;20115;-71
2021/01/31 01:50:46;;;;;;;257.58;153.65;;;282.30;1484.80;;;;;;4955716;29;20078;-71
2021/01/31 01:53:14;;;;;;;226.68;133.60;;;282.50;1484.80;;;;;;4955661;29;20105;-72
2021/01/31 01:55:49;;;;;;;192.27;110.97;;;307.20;1510.40;;;;;;4955379;29;20038;-72
2021/01/31 01:58:17;;;;;;;165.23;96.65;;;307.30;1433.60;;;;;;4955158;29;20053;-71
2021/01/31 02:00:45;;;;;;;196.82;114.47;;;307.40;1408.00;;;;;;4955398;29;20517;-72
2021/01/31 02:03:17;;;;;;;162.18;94.95;;;307.50;1433.60;;;;;;4955398;29;20102;-72
2021/01/31 02:05:52;;;;;;;151.43;92.43;;;307.60;1433.60;;;;;;4955070;29;20027;-68
2021/01/31 02:08:18;;;;;;;152.55;96.60;;;307.50;1459.20;;;;;;4955237;29;20115;-71
2021/01/31 02:10:43;;;;;;;160.27;101.68;;;307.60;1459.20;;;;;;4955282;29;20063;-68
2021/01/31 02:13:10;;;;;;;189.40;112.80;;;307.70;1433.60;;;;;;4954940;29;20106;-68
2021/01/31 02:15:36;;;;;;;199.70;124.00;;;307.70;1433.60;;;;;;4955154;29;20148;-68
2021/01/31 02:18:28;;;;;;;192.20;121.63;;;307.50;1484.80;;;;;;4955077;29;20031;-71
2021/01/31 02:21:20;;;;;;;211.50;133.40;;;307.30;1484.80;;;;;;4955250;29;20514;-69
2021/01/31 02:23:52;;;;;;;214.05;137.32;;;307.20;1484.80;;;;;;4954976;29;20541;-71
2021/01/31 02:26:20;;;;;;;205.00;132.10;;;307.50;1433.60;;;;;;4954830;29;20070;-69
2021/01/31 02:29:01;;;;;;;194.10;124.90;;;307.60;1433.60;;;;;;4955008;29;20036;-68
2021/01/31 02:31:46;;;;;;;209.85;128.00;;;307.60;1408.00;;;;;;4955219;29;20031;-69
2021/01/31 02:34:34;;;;;;;189.88;121.82;;;307.80;1408.00;;;;;;4962113;28;20022;-70
2021/01/31 02:37:21;;;;;;;194.57;123.53;;;307.80;1408.00;;;;;;4974062;28;20041;-70
2021/01/31 02:40:13;;;;;;;164.50;105.68;;;307.50;1408.00;;;;;;4973958;28;20069;-70
2021/01/31 02:43:05;;;;;;;159.38;101.53;;;307.60;1382.40;;;;;;4974270;28;20086;-71
2021/01/31 02:45:47;;;;;;;141.70;92.25;;;307.70;1382.40;;;;;;4973689;28;20481;-67
2021/01/31 02:48:16;;;;;;;171.32;105.43;;;307.60;1408.00;;;;;;4974554;28;20039;-75
2021/01/31 02:50:56;;;;;;;157.98;102.13;;;307.70;1408.00;;;;;;4974145;28;20027;-71
2021/01/31 02:53:30;;;;;;;178.55;109.38;;;307.60;1433.60;;;;;;4975830;28;20022;-69
2021/01/31 02:56:05;;;;;;;218.85;128.45;;;307.60;1433.60;;;;;;4974974;28;20051;-69
2021/01/31 02:58:58;;;;;;;216.18;128.80;;;307.30;1459.20;;;;;;4975359;28;20389;-71
2021/01/31 03:01:33;;;;;;;181.30;110.47;;;307.40;1459.20;;;;;;4974199;28;20033;-71
2021/01/31 03:04:24;;;;;;;189.00;113.63;;;307.60;1433.60;;;;;;4973291;28;20033;-70
2021/01/31 03:06:54;;;;;;;;;;;307.50;1459.20;;;;;;4971720;28;20047;-71
2021/01/31 03:09:40;;;;;;;189.70;118.65;;;307.50;1459.20;;;;;;4973491;28;19928;-70
2021/01/31 03:12:28;;;;;;;169.57;107.47;;;307.40;1484.80;;;;;;4973592;28;20023;-69
2021/01/31 03:15:08;;;;;;;175.45;111.60;;;307.30;1459.20;;;;;;4973386;28;20070;-70
2021/01/31 03:17:43;;;;;;;178.13;115.07;;;307.50;1484.80;;;;;;4973415;28;20027;-70
2021/01/31 03:20:22;;;;;;;174.25;111.28;;;307.40;1484.80;;;;;;4973336;28;20109;-70
2021/01/31 03:22:56;;;;;;;218.10;128.15;;;307.50;1459.20;;;;;;4973325;28;20073;-70
2021/01/31 03:25:33;;;;;;;255.60;145.73;;;307.40;1484.80;;;;;;4973256;28;20038;-71
2021/01/31 03:27:59;;;;;;;203.93;123.05;;;307.60;1459.20;;;;;;4973128;28;20051;-72
2021/01/31 03:30:25;;;;;;;203.23;125.13;;;307.60;1459.20;;;;;;4973219;28;20034;-69
2021/01/31 03:33:08;;;;;;;221.10;131.65;;;307.60;1459.20;;;;;;4973132;28;20385;-67
2021/01/31 03:35:38;;;;;;;215.45;128.43;;;307.60;1459.20;;;;;;4973180;28;20029;-68
2021/01/31 03:38:04;;;;;;;197.85;123.25;;;307.70;1459.20;;;;;;4973526;28;20031;-68
2021/01/31 03:40:30;;;;;;;184.38;120.68;;;307.60;1484.80;;;;;;4973497;28;20031;-68
2021/01/31 03:42:56;;;;;;;176.80;112.70;;;307.60;1459.20;;;;;;4973513;28;20037;-72
2021/01/31 03:45:34;;;;;;;310.75;164.05;;;307.60;1459.20;;;;;;4973227;28;20110;-69
2021/01/31 03:48:11;;;;;;;260.27;152.82;;;307.60;1484.80;;;;;;4973421;28;20038;-71
2021/01/31 03:50:37;;;;;;;219.50;130.27;;;307.60;1484.80;;;;;;4973525;28;20030;-71
2021/01/31 03:53:03;;;;;;;161.25;107.30;;;307.40;1510.40;;;;;;4973432;28;20035;-72
2021/01/31 03:55:29;;;;;;;198.30;127.65;;;307.40;1484.80;;;;;;4973342;28;20078;-73
2021/01/31 03:57:59;;;;;;;114.15;67.88;;;307.60;1510.40;;;;;;4973087;28;20057;-71
2021/01/31 04:00:28;;;;;;;35.83;19.75;;;307.60;1433.60;;;;;;4973367;28;20113;-73
2021/01/31 04:02:56;;;;;;;34.15;18.77;;;307.60;1408.00;;;;;;4976673;28;20105;-73
2021/01/31 04:05:25;;;;;;;74.18;47.33;;;307.70;1408.00;;;;;;4976707;28;20093;-72
2021/01/31 04:07:54;;;;;;;73.55;46.15;;;307.80;1459.20;;;;;;4976647;28;20101;-73
2021/01/31 04:10:21;;;;;;;99.00;65.97;;;308.00;1408.00;;;;;;4977026;28;20050;-72
2021/01/31 04:12:52;;;;;;;112.25;72.25;;;308.00;1433.60;;;;;;4976542;28;20452;-73
2021/01/31 04:15:34;;;;;;;115.13;75.60;;;308.00;1484.80;;;;;;4976623;28;20018;-71
2021/01/31 04:17:59;;;;;;;119.60;85.40;;;308.10;1459.20;;;;;;4976501;28;20393;-72
2021/01/31 04:20:25;;;;;;;130.25;95.35;;;332.80;1484.80;;;;;;4976565;28;20026;-73
2021/01/31 04:22:50;;;;;;;129.63;90.38;;;332.90;1484.80;;;;;;4976610;28;20031;-71
2021/01/31 04:25:16;;;;;;;133.55;89.70;;;332.80;1510.40;;;;;;4976233;28;20147;-73
2021/01/31 04:27:42;;;;;;;130.20;85.10;;;332.80;1510.40;;;;;;4976159;28;20118;-70
2021/01/31 04:30:09;;;;;;;128.52;95.53;;;308.10;1484.80;;;;;;4976332;28;20417;-73
2021/01/31 04:32:36;;;;;;;128.30;90.43;;;308.10;1536.00;;;;;;4976371;28;20023;-73
2021/01/31 04:35:04;;;;;;;133.40;87.32;;;308.10;1536.00;;;;;;4974784;28;20511;-74
2021/01/31 04:37:30;;;;;;;138.25;88.65;;;308.10;1510.40;;;;;;4976570;28;20039;-74
2021/01/31 04:39:55;;;;;;;139.02;85.60;;;332.80;1536.00;;;;;;4976100;28;20041;-71
2021/01/31 04:42:22;;;;;;;130.50;76.93;;;308.00;1510.40;;;;;;4958341;28;20039;-69
2021/01/31 04:44:50;;;;;;;106.47;67.68;;;307.90;1536.00;;;;;;4976244;28;20027;-70
2021/01/31 04:47:36;;;;;;;99.50;61.95;;;307.80;1561.60;;;;;;4975928;28;20109;-69
2021/01/31 04:50:27;;;;;;;85.75;52.13;;;307.80;1536.00;;;;;;4975971;28;20034;-70
2021/01/31 04:53:11;;;;;;;73.50;45.65;;;307.90;1561.60;;;;;;4975978;28;20533;-69
2021/01/31 04:55:43;;;;;;;59.05;37.70;;;307.80;1561.60;;;;;;4975769;28;20043;-69
2021/01/31 04:58:11;;;;;;;;;;;307.80;1561.60;;;;;;4976223;28;20039;-70
2021/01/31 05:00:51;;;;;;;112.60;64.57;;;307.90;1561.60;;;;;;4975799;28;19928;-70
2021/01/31 05:03:19;;;;;;;88.68;55.53;;;307.90;1561.60;;;;;;4975737;28;20094;-71
2021/01/31 05:06:05;;;;;;;105.90;69.57;;;308.00;1612.80;;;;;;4975422;28;20026;-71
2021/01/31 05:08:32;;;;;;;102.13;67.18;;;307.90;1612.80;;;;;;4975729;28;20050;-69
2021/01/31 05:11:12;;;;;;;114.32;66.15;;;307.80;1638.40;;;;;;4975546;28;20026;-70
2021/01/31 05:14:01;;;;;;;106.13;72.30;;;307.80;1664.00;;;;;;4974817;28;20028;-70
2021/01/31 05:16:27;;;;;;;103.20;64.45;;;307.80;1689.60;;;;;;4934787;29;20072;-70
2021/01/31 05:19:00;;;;;;;79.85;50.05;;;307.60;1689.60;;;;;;4935038;29;20110;-68
2021/01/31 05:21:31;;;;;;;78.57;50.45;;;307.30;1715.20;;;;;;4934811;29;20038;-70
2021/01/31 05:24:19;;;;;;;81.85;52.90;;;307.50;1715.20;;;;;;4934860;29;20479;-71
2021/01/31 05:26:54;;;;;;;91.00;59.50;;;307.70;1715.20;;;;;;4934540;29;20504;-71
2021/01/31 05:29:27;;;;;;;77.00;47.28;;;307.80;1715.20;;;;;;4934864;29;20039;-68
2021/01/31 05:32:05;;;;;;;67.20;43.45;;;307.60;1740.80;;;;;;4934334;29;20031;-70
2021/01/31 05:34:39;;;;;;;64.10;39.03;;;307.70;1740.80;;;;;;4925234;29;20116;-75
2021/01/31 05:37:09;;;;;;;62.92;38.88;;;307.60;1766.40;;;;;;4915658;29;20506;-69
2021/01/31 05:39:37;;;;;;;75.13;43.08;;;307.60;1766.40;;;;;;4915524;28;20036;-71
2021/01/31 05:42:10;;;;;;;98.15;53.60;;;307.50;1792.00;;;;;;4915680;29;20036;-72
2021/01/31 05:44:37;;;;;;;88.85;51.03;;;307.50;1766.40;;;;;;4915520;29;20032;-69
2021/01/31 05:47:17;;;;;;;69.70;42.22;;;307.60;1792.00;;;;;;4915195;29;20048;-70
2021/01/31 05:49:47;;;;;;;67.40;41.13;;;307.70;1792.00;;;;;;4915289;29;20024;-68
2021/01/31 05:52:19;;;;;;;56.90;38.47;;;307.60;1817.60;;;;;;4915050;29;20039;-69
2021/01/31 05:54:45;;;;;;;;;;;307.60;1817.60;;;;;;4955564;28;20034;-69
2021/01/31 05:57:22;;;;;;;44.85;29.88;;;307.50;1843.20;;;;;;4954964;28;19929;-69
2021/01/31 05:59:48;;;;;;;41.65;26.88;;;307.30;1868.80;;;;;;4937691;29;20367;-68
2021/01/31 06:02:26;;;;;;;48.65;30.88;;;307.20;1920.00;;;;;;4955123;28;20038;-69
2021/01/31 06:05:10;;;;;;;115.30;71.78;;;307.30;1894.40;;;;;;4966766;28;20029;-68
2021/01/31 06:07:38;;;;;;;62.00;38.92;;;307.20;1945.60;;;;;;4958543;28;20106;-69
2021/01/31 06:10:17;;;;;;;68.80;44.30;;;307.20;1920.00;;;;;;4954812;29;20496;-70
2021/01/31 06:12:44;;;;;;;68.97;45.88;;;307.30;1920.00;;;;;;4954851;29;20038;-70
2021/01/31 06:15:13;;;;;;;65.95;43.53;;;307.30;1945.60;;;;;;4954658;29;20470;-69
2021/01/31 06:17:39;;;;;;;62.15;41.78;;;282.50;1945.60;;;;;;4954801;29;20042;-69
2021/01/31 06:20:13;;;;;;;70.90;42.00;;;307.30;1920.00;;;;;;4954721;29;20027;-70
2021/01/31 06:22:38;;;;;;;61.58;40.60;;;307.60;1894.40;;;;;;4954601;29;20035;-70
2021/01/31 06:25:05;;;;;;;57.25;36.80;;;307.60;1868.80;;;;;;4954539;28;20035;-70
2021/01/31 06:27:32;;;;;;;61.90;39.90;;;307.50;1894.40;;;;;;4954468;29;20146;-70
2021/01/31 06:30:11;;;;;;;66.25;40.47;;;307.60;1868.80;;;;;;4954707;29;20047;-70
2021/01/31 06:32:37;;;;;;;89.65;52.15;;;307.60;1868.80;;;;;;4954548;29;20471;-71
2021/01/31 06:35:08;;;;;;;85.03;53.15;;;307.60;1868.80;;;;;;4967516;28;20474;-70
2021/01/31 06:37:52;;;;;;;92.25;56.80;;;307.50;1894.40;;;;;;4973546;28;20019;-70
2021/01/31 06:40:43;;;;;;;88.03;54.85;;;307.30;1894.40;;;;;;4956492;28;20026;-71
2021/01/31 06:43:14;;;;;;;83.93;52.92;;;307.40;1894.40;;;;;;4974153;28;20385;-72
2021/01/31 06:45:55;;;;;;;79.47;51.58;;;307.50;1894.40;;;;;;4973897;28;20023;-71
2021/01/31 06:48:39;;;;;;;89.18;60.42;;;307.50;1894.40;;;;;;4973511;28;20555;-72
2021/01/31 06:51:31;;;;;;;94.25;63.08;;;307.60;1920.00;;;;;;4973874;28;20023;-71
2021/01/31 06:54:21;;;;;;;95.20;65.03;;;307.70;1894.40;;;;;;4973609;28;20031;-72
2021/01/31 06:57:34;;;;;;;130.48;82.70;;;307.70;1894.40;;;;;;4973192;28;20051;-72
2021/01/31 07:00:25;;;;;;;141.52;95.82;;;307.60;1920.00;;;;;;4932812;29;20032;-73
2021/01/31 07:03:26;;;;;;;;;;;307.60;1920.00;;;;;;4933248;29;20035;-72
2021/01/31 07:06:29;;;;;;;107.70;74.13;;;307.70;1920.00;;;;;;4952125;29;19906;-73
2021/01/31 07:09:09;;;;;;;105.55;74.20;;;307.60;1920.00;;;;;;4951883;29;20047;-71
2021/01/31 07:11:53;;;;;;;111.32;74.65;;;307.60;1920.00;;;;;;4951975;29;20062;-71
2021/01/31 07:14:21;;;;;;;105.00;74.03;;;307.70;1894.40;;;;;;4951968;29;20117;-70
2021/01/31 07:17:05;;;;;;;107.63;77.90;;;307.70;1894.40;;;;;;4951840;29;20035;-71
2021/01/31 07:19:41;;;;;;;154.38;115.15;;;307.80;1868.80;;;;;;4951896;29;20049;-70
2021/01/31 07:22:10;;;;;;;136.20;100.70;;;307.80;1868.80;;;;;;4951676;29;20151;-71
2021/01/31 07:25:03;;;;;;;153.90;110.60;;;307.80;1868.80;;;;;;4951951;29;20038;-70
2021/01/31 07:27:42;;;;;;;164.45;116.63;;;307.60;1894.40;;;;;;4951687;29;20387;-71
2021/01/31 07:30:21;;;;;;;153.30;105.45;;;307.50;1894.40;;;;;;4951766;29;20027;-76
2021/01/31 07:33:32;;;;;;;159.60;112.72;;;307.50;1894.40;;;;;;4951772;29;20130;-76
2021/01/31 07:36:19;;;;;;;166.77;121.43;;;307.60;1894.40;;;;;;4913907;29;20044;-75
2021/01/31 07:38:55;;;;;;;164.80;118.05;;;307.60;1894.40;;;;;;4916872;28;20032;-71
2021/01/31 07:41:21;;;;;;;166.43;119.55;;;307.80;1894.40;;;;;;4898878;29;20567;-71
2021/01/31 07:43:54;;;;;;;178.43;129.82;;;307.90;1868.80;;;;;;4898637;29;20029;-70
2021/01/31 07:46:20;;;;;;;187.07;135.43;;;307.90;1868.80;;;;;;4898076;29;20161;-72
2021/01/31 07:48:50;;;;;;;187.50;130.43;;;307.90;1843.20;;;;;;4898348;29;20110;-71
2021/01/31 07:51:39;;;;;;;186.90;132.82;;;308.00;1868.80;;;;;;4898174;29;20033;-71
2021/01/31 07:54:29;;;;;;;206.60;146.77;;;307.90;1868.80;;;;;;4916957;29;20039;-70
2021/01/31 07:56:56;;;;;;;155.45;109.00;;;308.10;1868.80;;;;;;4906571;29;20056;-72
2021/01/31 07:59:28;;;;;;;145.23;99.78;;;308.10;1817.60;;;;;;4898103;29;20048;-73
2021/01/31 08:01:55;;;;;;;161.85;103.03;;;332.80;1817.60;;;;;;4897778;29;20512;-72
2021/01/31 08:04:35;;;;;;;161.18;105.20;;;332.80;1843.20;;;;;;4897780;29;20111;-72
2021/01/31 08:07:04;;;;;;;142.68;99.75;;;332.90;1843.20;;;;;;4910544;29;20470;-71
2021/01/31 08:09:30;;;;;;;117.07;82.10;;;332.80;1843.20;;;;;;4916738;29;20025;-73
2021/01/31 08:12:04;;;;;;;109.00;70.47;;;332.90;1817.60;;;;;;4916743;29;20403;-68
2021/01/31 08:15:03;;;;;;;84.22;52.47;;;332.90;1766.40;;;;;;4916652;29;20115;-71
2021/01/31 08:17:55;;;;;;;80.35;53.55;;;332.80;1740.80;;;;;;4916592;29;20096;-68
2021/01/31 08:20:27;;;;;;;179.82;115.68;;;332.90;1740.80;;;;;;4916671;29;20036;-71
2021/01/31 08:22:53;;;;;;;;;;;332.90;1766.40;;;;;;4916509;29;20032;-68
2021/01/31 08:25:18;;;;;;;105.10;69.38;;;333.00;1766.40;;;;;;4916424;29;20481;-73
2021/01/31 08:27:54;;;;;;;96.13;60.28;;;333.00;1766.40;;;;;;4916499;29;20168;-70
2021/01/31 08:30:26;;;;;;;88.88;62.83;;;333.00;1766.40;;;;;;4920641;28;20039;-72
2021/01/31 08:32:58;;;;;;;81.45;52.78;;;333.10;1766.40;;;;;;4936153;29;20031;-68
2021/01/31 08:35:44;;;;;;;78.00;54.40;;;332.90;1766.40;;;;;;4922282;29;20420;-69
2021/01/31 08:38:25;;;;;;;73.45;49.05;;;333.00;1766.40;;;;;;4915044;29;20063;-68
2021/01/31 08:41:05;;;;;;;58.53;39.85;;;333.10;1766.40;;;;;;4917606;29;20032;-68
2021/01/31 08:43:44;;;;;;;77.78;64.40;;;333.10;1766.40;;;;;;4918732;29;20020;-74
2021/01/31 08:46:10;;;;;;;71.85;50.28;;;332.90;1766.40;;;;;;4918539;29;20090;-70
2021/01/31 08:48:36;;;;;;;61.75;40.17;;;332.90;1766.40;;;;;;4917390;29;20028;-71
2021/01/31 08:51:16;;;;;;;46.38;31.90;;;333.00;1766.40;;;;;;4918500;29;20031;-71
2021/01/31 08:53:42;;;;;;;52.50;34.67;;;333.10;1740.80;;;;;;4918512;29;20496;-71
2021/01/31 08:56:12;;;;;;;49.05;30.90;;;332.90;1766.40;;;;;;4926587;29;20085;-69
2021/01/31 08:58:39;;;;;;;55.38;36.95;;;333.00;1766.40;;;;;;4956483;29;20039;-71
2021/01/31 09:01:05;;;;;;;48.35;35.83;;;333.00;1766.40;;;;;;4956388;29;20019;-70
2021/01/31 09:03:32;;;;;;;43.97;32.40;;;332.90;1766.40;;;;;;4956475;29;20032;-71
2021/01/31 09:06:01;;;;;;;69.22;46.60;;;332.90;1766.40;;;;;;4956367;29;20028;-71
2021/01/31 09:08:27;;;;;;;72.63;45.53;;;332.90;1792.00;;;;;;4956442;29;20043;-72
2021/01/31 09:10:54;;;;;;;73.10;51.72;;;333.00;1766.40;;;;;;4956031;29;20030;-72
2021/01/31 09:13:33;;;;;;;62.92;42.47;;;332.90;1766.40;;;;;;4956277;29;20035;-71
2021/01/31 09:16:11;;;;;;;73.47;50.22;;;332.90;1740.80;;;;;;4956253;29;20475;-71
2021/01/31 09:18:38;;;;;;;67.10;46.33;;;332.80;1766.40;;;;;;4956254;29;20208;-71
2021/01/31 09:21:28;;;;;;;60.53;44.25;;;332.90;1766.40;;;;;;4956121;29;20030;-71
2021/01/31 09:24:01;;;;;;;60.83;42.83;;;332.90;1766.40;;;;;;4956069;29;20032;-72
2021/01/31 09:26:28;;;;;;;52.70;37.53;;;332.90;1766.40;;;;;;4956383;29;20478;-71
2021/01/31 09:28:56;;;;;;;43.90;30.58;;;332.90;1766.40;;;;;;4956066;29;20031;-70
2021/01/31 09:31:23;;;;;;;50.05;35.50;;;332.90;1740.80;;;;;;4956019;29;20114;-71
2021/01/31 09:33:53;;;;;;;48.25;34.53;;;332.90;1766.40;;;;;;4957824;28;20027;-71
2021/01/31 09:36:24;;;;;;;58.45;41.80;;;332.80;1792.00;;;;;;4975230;28;20022;-73
2021/01/31 09:38:52;;;;;;;74.72;48.22;;;332.80;1792.00;;;;;;4975069;28;20057;-73
2021/01/31 09:41:21;;;;;;;72.07;49.30;;;332.80;1792.00;;;;;;4975121;28;20035;-73
2021/01/31 09:43:52;;;;;;;62.80;46.10;;;332.80;1792.00;;;;;;4975051;28;20456;-73
2021/01/31 09:46:21;;;;;;;53.47;39.50;;;332.90;1766.40;;;;;;4972755;28;20030;-69
2021/01/31 09:48:49;;;;;;;47.42;36.40;;;332.90;1766.40;;;;;;4955472;29;20027;-69
2021/01/31 09:51:26;;;;;;;76.63;57.90;;;332.90;1766.40;;;;;;4955571;29;20478;-69
2021/01/31 09:53:52;;;;;;;73.28;51.97;;;332.90;1766.40;;;;;;4955503;29;20485;-69
2021/01/31 09:56:35;;;;;;;66.57;50.78;;;332.90;1792.00;;;;;;4955146;28;20043;-72
2021/01/31 09:59:01;;;;;;;73.75;50.42;;;332.90;1792.00;;;;;;4955386;28;20035;-70
2021/01/31 10:01:29;;;;;;;77.10;53.22;;;332.90;1792.00;;;;;;4962901;28;20023;-73
2021/01/31 10:04:01;;;;;;;91.57;64.65;;;332.90;1766.40;;;;;;4973819;28;20505;-77
2021/01/31 10:06:38;;;;;;;71.95;49.42;;;332.90;1817.60;;;;;;4972118;28;20038;-70
2021/01/31 10:09:04;;;;;;;89.22;61.10;;;332.90;1792.00;;;;;;4972249;28;20026;-68
2021/01/31 10:11:39;;;;;;;90.65;59.70;;;332.90;1792.00;;;;;;4974089;28;20078;-70
2021/01/31 10:14:08;;;;;;;92.97;62.50;;;332.90;1792.00;;;;;;4972169;28;20034;-73
2021/01/31 10:16:37;;;;;;;90.93;58.28;;;332.90;1817.60;;;;;;4971273;28;20446;-73
2021/01/31 10:19:22;;;;;;;94.28;59.60;;;332.90;1817.60;;;;;;4973751;28;20054;-76
2021/01/31 10:21:56;;;;;;;68.30;43.70;;;332.90;1817.60;;;;;;4966960;28;20027;-73
2021/01/31 10:24:32;;;;;;;141.20;80.25;;;332.90;1792.00;;;;;;4970699;28;20031;-77
2021/01/31 10:27:27;;;;;;;133.00;77.28;;;332.90;1792.00;;;;;;4969291;28;20038;-69
2021/01/31 10:29:55;;;;;;;121.30;73.78;;;332.80;1817.60;;;;;;4973068;28;20493;-70
2021/01/31 10:32:36;;;;;;;180.75;108.90;;;332.80;1817.60;;;;;;4973503;28;20054;-69
2021/01/31 10:35:17;;;;;;;118.32;79.13;;;332.80;1817.60;;;;;;4952721;28;20080;-67
2021/01/31 10:37:43;;;;;;;158.82;95.50;;;332.90;1792.00;;;;;;4973884;28;20026;-70
2021/01/31 10:40:09;;;;;;;108.35;66.40;;;332.90;1817.60;;;;;;4973713;28;20498;-72
2021/01/31 10:42:35;;;;;;;93.15;61.47;;;332.90;1817.60;;;;;;4973623;28;20034;-75
2021/01/31 10:45:10;;;;;;;92.90;61.15;;;332.90;1817.60;;;;;;4973585;28;20019;-70
2021/01/31 10:47:36;;;;;;;100.50;65.70;;;332.90;1817.60;;;;;;4973299;28;20037;-69
2021/01/31 10:50:03;;;;;;;112.68;75.95;;;332.90;1792.00;;;;;;4973304;28;20022;-73
2021/01/31 10:52:29;;;;;;;115.72;74.90;;;332.90;1792.00;;;;;;4973348;28;20557;-70
2021/01/31 10:54:55;;;;;;;136.55;88.82;;;332.80;1817.60;;;;;;4973677;28;20074;-70
2021/01/31 10:57:21;;;;;;;72.97;48.47;;;332.90;1817.60;;;;;;4973672;28;20054;-70
2021/01/31 10:59:46;;;;;;;36.20;26.42;;;332.80;1843.20;;;;;;4973969;28;20433;-70
2021/01/31 11:02:12;;;;;;;38.40;28.52;;;308.10;1817.60;;;;;;4973449;28;20067;-70
2021/01/31 11:04:38;;;;;;;58.92;36.10;;;332.80;1843.20;;;;;;4973648;28;20066;-70
2021/01/31 11:07:03;;;;;;;164.68;120.55;;;308.10;1792.00;;;;;;4973892;28;20101;-71
2021/01/31 11:09:29;;;;;;;65.18;46.90;;;308.00;1817.60;;;;;;4974126;28;20154;-71
2021/01/31 11:11:55;;;;;;;42.88;29.08;;;308.10;1817.60;;;;;;4976064;28;20069;-70
2021/01/31 11:14:20;;;;;;;45.65;30.42;;;308.10;1817.60;;;;;;4977908;28;20018;-71
2021/01/31 11:16:46;;;;;;;75.40;53.40;;;308.10;1817.60;;;;;;4976886;28;20086;-71
2021/01/31 11:19:12;;;;;;;80.60;58.08;;;332.80;1843.20;;;;;;4977712;28;20047;-71
2021/01/31 11:21:37;;;;;;;66.18;46.75;;;332.80;1817.60;;;;;;4977838;28;20069;-71
2021/01/31 11:24:04;;;;;;;61.72;41.50;;;332.80;1843.20;;;;;;4978003;28;20027;-71
2021/01/31 11:26:30;;;;;;;47.03;30.35;;;332.80;1817.60;;;;;;4977658;28;20504;-71
2021/01/31 11:28:56;;;;;;;60.90;38.20;;;308.00;1792.00;;;;;;4977906;28;20030;-71
2021/01/31 11:31:23;;;;;;;54.95;35.45;;;308.10;1792.00;;;;;;4977792;28;20023;-71
2021/01/31 11:33:51;;;;;;;46.95;28.58;;;333.00;1792.00;;;;;;4977537;28;20153;-71
2021/01/31 11:36:17;;;;;;;61.50;36.53;;;333.00;1792.00;;;;;;4977679;28;20098;-71
2021/01/31 11:38:43;;;;;;;43.03;27.67;;;333.30;1766.40;;;;;;4977511;28;20054;-71
2021/01/31 11:41:09;;;;;;;63.42;34.55;;;333.50;1740.80;;;;;;4977580;28;20085;-71
2021/01/31 11:43:34;;;;;;;54.92;34.40;;;333.60;1740.80;;;;;;4977774;28;20445;-71
2021/01/31 11:46:00;;;;;;;42.47;28.58;;;333.70;1715.20;;;;;;4977693;28;20023;-71
2021/01/31 11:48:26;;;;;;;37.67;24.73;;;333.60;1715.20;;;;;;4977243;28;20062;-71
2021/01/31 11:50:52;;;;;;;38.25;25.65;;;358.40;1689.60;;;;;;4977343;28;20034;-71
2021/01/31 11:53:17;;;;;;;53.92;35.35;;;358.40;1715.20;;;;;;4977071;28;20054;-71
2021/01/31 11:55:43;;;;;;;66.68;44.63;;;358.70;1689.60;;;;;;4977009;28;20490;-71
2021/01/31 11:58:11;;;;;;;45.22;30.35;;;358.50;1664.00;;;;;;4977167;28;20110;-71
2021/01/31 12:00:36;;;;;;;28.92;20.45;;;333.70;1715.20;;;;;;4959893;28;20569;-71
2021/01/31 12:03:04;;;;;;;32.60;20.42;;;333.60;1715.20;;;;;;4976997;28;20113;-72
2021/01/31 12:05:29;;;;;;;35.80;22.27;;;333.50;1715.20;;;;;;4977081;28;20105;-71
2021/01/31 12:07:55;;;;;;;27.23;18.48;;;333.30;1740.80;;;;;;4977254;28;20502;-71
2021/01/31 12:10:21;;;;;;;72.72;41.47;;;333.20;1740.80;;;;;;4977117;28;20489;-71
2021/01/31 12:12:46;;;;;;;153.30;82.63;;;333.30;1715.20;;;;;;4977091;28;20401;-71
2021/01/31 12:15:15;;;;;;;56.67;37.30;;;333.20;1740.80;;;;;;4959441;28;20043;-71
2021/01/31 12:17:41;;;;;;;87.25;49.72;;;333.10;1740.80;;;;;;4976840;28;20030;-71